createdAt,value
2024-01-01T00:02:20.134Z,4.10
2024-01-01T00:04:48.618Z,4.10
2024-01-01T00:07:16.879Z,3.80
2024-01-01T00:09:45.042Z,4.10
2024-01-01T00:12:14.541Z,4.20
2024-01-01T00:14:43.010Z,4.00
2024-01-01T00:17:11.241Z,3.90
2024-01-01T00:19:39.880Z,3.70
2024-01-01T00:22:08.267Z,3.80
2024-01-01T00:24:36.433Z,3.70
2024-01-01T00:27:04.883Z,4.10
2024-01-01T00:29:37.405Z,3.80
2024-01-01T00:32:07.863Z,4.10
2024-01-01T00:34:36.313Z,3.80
2024-01-01T00:37:04.540Z,4.00
2024-01-01T00:39:32.968Z,3.70
2024-01-01T00:42:01.098Z,3.80
2024-01-01T00:44:29.260Z,3.90
2024-01-01T00:46:59.567Z,3.80
2024-01-01T00:49:27.991Z,3.90
2024-01-01T00:51:56.185Z,4.20
2024-01-01T00:54:25.604Z,4.10
2024-01-01T00:56:55.501Z,4.00
2024-01-01T00:59:26.228Z,4.30
2024-01-01T01:01:54.859Z,4.30
2024-01-01T01:04:24.422Z,4.30
2024-01-01T01:06:53.894Z,4.00
2024-01-01T01:09:22.199Z,4.20
2024-01-01T01:11:50.719Z,3.80
2024-01-01T01:14:18.817Z,4.10
2024-01-01T01:16:47.320Z,4.00
2024-01-01T01:19:15.649Z,4.20
2024-01-01T01:21:45.239Z,4.00
2024-01-01T01:24:16.918Z,4.10
2024-01-01T01:26:45.357Z,4.00
2024-01-01T01:29:13.727Z,4.30
2024-01-01T01:31:43.495Z,4.10
2024-01-01T01:34:12.002Z,4.50
2024-01-01T01:36:40.160Z,4.30
2024-01-01T01:39:10.880Z,4.20
2024-01-01T01:41:39.611Z,4.10
2024-01-01T01:44:08.051Z,4.20
2024-01-01T01:46:37.093Z,3.80
2024-01-01T01:49:05.444Z,4.30
2024-01-01T01:51:33.939Z,4.10
2024-01-01T01:54:02.548Z,4.30
2024-01-01T01:56:32.264Z,4.10
2024-01-01T01:59:04.442Z,4.00
2024-01-01T02:01:33.193Z,3.70
2024-01-01T02:04:01.381Z,3.80
2024-01-01T02:06:31.752Z,3.80
2024-01-01T02:09:01.172Z,3.50
2024-01-01T02:11:29.471Z,3.60
2024-01-01T02:14:10.748Z,3.90
2024-01-01T02:16:39.343Z,3.80
2024-01-01T02:19:17.446Z,3.70
2024-01-01T02:21:45.736Z,3.80
2024-01-01T02:24:16.999Z,3.70
2024-01-01T02:26:45.382Z,3.90
2024-01-01T02:29:14.156Z,3.80
2024-01-01T02:31:42.690Z,3.80
2024-01-01T02:34:10.833Z,3.60
2024-01-01T02:36:40.846Z,3.70
2024-01-01T02:39:11.383Z,3.60
2024-01-01T02:41:41.561Z,3.60
2024-01-01T02:44:10.016Z,3.50
2024-01-01T02:46:38.270Z,3.50
2024-01-01T02:49:06.882Z,3.50
2024-01-01T02:51:35.108Z,3.80
2024-01-01T02:54:03.353Z,3.60
2024-01-01T02:56:31.507Z,3.80
2024-01-01T02:59:00.946Z,3.60
2024-01-01T03:01:29.098Z,3.40
2024-01-01T03:03:57.673Z,3.50
2024-01-01T03:06:26.521Z,3.30
2024-01-01T03:08:54.736Z,3.40
2024-01-01T03:11:22.880Z,3.70
2024-01-01T03:13:51.014Z,3.40
2024-01-01T03:16:20.490Z,3.20
2024-01-01T03:18:48.620Z,3.40
2024-01-01T03:21:17.566Z,3.40
2024-01-01T03:23:46.962Z,3.70
2024-01-01T03:26:15.547Z,3.40
2024-01-01T03:28:43.934Z,3.30
2024-01-01T03:31:12.180Z,3.40
2024-01-01T03:33:41.665Z,3.90
2024-01-01T03:36:10.741Z,3.40
2024-01-01T03:38:39.092Z,3.50
2024-01-01T03:41:07.315Z,3.30
2024-01-01T03:43:35.532Z,3.40
2024-01-01T03:46:03.699Z,3.80
2024-01-01T03:48:31.958Z,3.40
2024-01-01T03:51:01.525Z,3.40
2024-01-01T03:53:29.642Z,3.50
2024-01-01T03:55:58.030Z,3.50
2024-01-01T03:58:26.556Z,3.50
2024-01-01T04:00:54.723Z,3.10
2024-01-01T04:03:22.839Z,3.60
2024-01-01T04:05:51.201Z,3.50
2024-01-01T04:08:20.850Z,3.50
2024-01-01T04:10:49.416Z,3.80
2024-01-01T04:13:17.656Z,3.80
2024-01-01T04:15:45.797Z,3.80
2024-01-01T04:18:14.169Z,3.70
2024-01-01T04:20:42.400Z,3.90
2024-01-01T04:23:10.506Z,3.30
2024-01-01T04:25:40.097Z,3.70
2024-01-01T04:28:08.676Z,3.50
2024-01-01T04:30:36.992Z,3.70
2024-01-01T04:33:05.706Z,4.10
2024-01-01T04:35:34.592Z,3.50
2024-01-01T04:38:02.996Z,4.00
2024-01-01T04:40:31.256Z,4.00
2024-01-01T04:43:01.071Z,3.90
2024-01-01T04:45:29.326Z,4.20
2024-01-01T04:47:57.739Z,4.10
2024-01-01T04:50:25.904Z,4.30
2024-01-01T04:52:54.122Z,3.90
2024-01-01T04:55:22.503Z,4.20
2024-01-01T04:57:50.646Z,4.30
2024-01-01T05:00:20.263Z,4.50
2024-01-01T05:02:48.662Z,4.10
2024-01-01T05:05:17.412Z,4.50
2024-01-01T05:07:46.446Z,4.20
2024-01-01T05:10:14.645Z,4.70
2024-01-01T05:12:45.193Z,4.50
2024-01-01T05:15:14.081Z,4.60
2024-01-01T05:17:43.757Z,4.90
2024-01-01T05:20:12.458Z,5.20
2024-01-01T05:22:41.876Z,4.50
2024-01-01T05:25:10.571Z,4.90
2024-01-01T05:27:38.684Z,4.60
2024-01-01T05:30:08.144Z,4.70
2024-01-01T05:32:36.422Z,4.50
2024-01-01T05:35:07.478Z,5.00
2024-01-01T05:37:35.709Z,4.70
2024-01-01T05:40:04.034Z,4.80
2024-01-01T05:42:33.333Z,4.40
2024-01-01T05:45:01.474Z,5.00
2024-01-01T05:47:29.625Z,5.10
2024-01-01T05:49:57.892Z,5.40
2024-01-01T05:52:27.550Z,5.30
2024-01-01T05:54:55.785Z,5.20
2024-01-01T05:57:23.989Z,5.30
2024-01-01T05:59:52.184Z,5.10
2024-01-01T06:02:20.356Z,5.10
2024-01-01T06:04:48.483Z,5.40
2024-01-01T06:07:16.640Z,5.10
2024-01-01T06:09:46.203Z,5.20
2024-01-01T06:12:14.401Z,5.40
2024-01-01T06:14:42.465Z,5.10
2024-01-01T06:17:10.833Z,4.90
2024-01-01T06:19:39.035Z,5.20
2024-01-01T06:22:07.109Z,5.00
2024-01-01T06:24:35.277Z,5.20
2024-01-01T06:27:05.172Z,5.20
2024-01-01T06:29:33.391Z,4.80
2024-01-01T06:32:01.568Z,5.20
2024-01-01T06:34:29.786Z,5.20
2024-01-01T06:36:58.161Z,5.20
2024-01-01T06:39:26.317Z,5.60
2024-01-01T06:41:54.549Z,5.30
2024-01-01T06:44:26.677Z,5.30
2024-01-01T06:46:55.128Z,5.30
2024-01-01T06:49:23.363Z,5.20
2024-01-01T06:51:52.538Z,4.80
2024-01-01T06:54:20.694Z,5.20
2024-01-01T06:56:48.922Z,5.20
2024-01-01T06:59:19.383Z,5.30
2024-01-01T07:01:48.997Z,5.10
2024-01-01T07:04:17.180Z,5.30
2024-01-01T07:06:46.383Z,4.90
2024-01-01T07:09:14.710Z,5.00
2024-01-01T07:11:42.961Z,5.00
2024-01-01T07:14:11.186Z,4.60
2024-01-01T07:16:39.530Z,4.90
2024-01-01T07:19:09.156Z,4.90
2024-01-01T07:21:37.399Z,4.60
2024-01-01T07:24:06.407Z,4.60
2024-01-01T07:26:34.597Z,4.20
2024-01-01T07:29:04.084Z,4.50
2024-01-01T07:31:32.229Z,4.50
2024-01-01T07:34:00.389Z,4.60
2024-01-01T07:36:30.470Z,4.40
2024-01-01T07:38:58.552Z,4.40
2024-01-01T07:41:26.844Z,4.40
2024-01-01T07:43:55.133Z,4.80
2024-01-01T07:46:23.290Z,4.40
2024-01-01T07:48:51.954Z,4.70
2024-01-01T07:51:20.280Z,4.90
2024-01-01T07:53:51.331Z,4.80
2024-01-01T07:56:19.649Z,4.90
2024-01-01T07:58:47.905Z,4.80
2024-01-01T08:01:18.674Z,4.90
2024-01-01T08:03:46.915Z,4.70
2024-01-01T08:06:15.215Z,5.10
2024-01-01T08:08:43.382Z,5.10
2024-01-01T08:11:12.876Z,5.30
2024-01-01T08:13:41.023Z,5.20
2024-01-01T08:16:09.361Z,5.00
2024-01-01T08:18:37.518Z,5.10
2024-01-01T08:21:05.986Z,4.90
2024-01-01T08:23:34.344Z,4.70
2024-01-01T08:26:03.503Z,4.70
2024-01-01T08:28:33.581Z,4.40
2024-01-01T08:31:01.912Z,4.60
2024-01-01T08:33:30.248Z,4.40
2024-01-01T08:35:58.523Z,4.70
2024-01-01T08:38:27.087Z,4.90
2024-01-01T08:40:55.811Z,5.00
2024-01-01T08:43:23.970Z,4.90
2024-01-01T08:45:53.433Z,4.90
2024-01-01T08:48:21.768Z,4.90
2024-01-01T08:50:49.952Z,4.90
2024-01-01T08:53:18.052Z,5.00
2024-01-01T08:55:46.556Z,5.00
2024-01-01T08:58:14.649Z,4.90
2024-01-01T09:00:42.843Z,4.60
2024-01-01T09:03:12.460Z,4.70
2024-01-01T09:05:40.772Z,4.90
2024-01-01T09:08:09.446Z,4.60
2024-01-01T09:10:37.974Z,4.80
2024-01-01T09:13:06.436Z,4.70
2024-01-01T09:15:34.591Z,4.90
2024-01-01T09:18:03.106Z,4.20
2024-01-01T09:20:33.086Z,4.50
2024-01-01T09:23:01.321Z,4.80
2024-01-01T09:25:30.145Z,4.50
2024-01-01T09:27:58.230Z,4.80
2024-01-01T09:30:26.597Z,4.70
2024-01-01T09:32:54.832Z,4.50
2024-01-01T09:35:23.065Z,5.10
2024-01-01T09:37:55.072Z,5.00
2024-01-01T09:40:23.405Z,4.60
2024-01-01T09:42:52.066Z,4.50
2024-01-01T09:45:21.371Z,4.30
2024-01-01T09:47:49.646Z,4.50
2024-01-01T09:50:19.427Z,4.50
2024-01-01T09:52:47.961Z,4.20
2024-01-01T09:55:17.565Z,5.10
2024-01-01T09:57:45.654Z,4.80
2024-01-01T10:00:23.628Z,5.10
2024-01-01T10:02:52.357Z,4.60
2024-01-01T10:05:20.589Z,5.40
2024-01-01T10:07:50.062Z,5.20
2024-01-01T10:10:29.688Z,5.30
2024-01-01T10:13:09.387Z,5.20
2024-01-01T10:15:40.976Z,5.30
2024-01-01T10:18:11.524Z,5.50
2024-01-01T10:20:40.405Z,5.90
2024-01-01T10:23:28.378Z,5.60
2024-01-01T10:26:08.935Z,5.60
2024-01-01T10:28:37.266Z,5.00
2024-01-01T10:31:05.730Z,5.10
2024-01-01T10:33:35.600Z,4.70
2024-01-01T10:36:04.964Z,5.40
2024-01-01T10:38:33.605Z,4.90
2024-01-01T10:41:03.659Z,4.90
2024-01-01T10:43:33.451Z,5.00
2024-01-01T10:46:05.169Z,4.70
2024-01-01T10:48:34.620Z,4.40
2024-01-01T10:51:34.519Z,4.50
2024-01-01T10:54:15.640Z,4.10
2024-01-01T10:56:53.007Z,4.50
2024-01-01T10:59:23.555Z,4.50
2024-01-01T11:01:54.616Z,4.50
2024-01-01T11:04:23.286Z,4.70
2024-01-01T11:06:51.607Z,4.30
2024-01-01T11:09:33.075Z,4.50
2024-01-01T11:12:03.442Z,4.30
2024-01-01T11:14:35.653Z,4.50
2024-01-01T11:17:08.224Z,4.50
2024-01-01T11:19:42.654Z,4.20
2024-01-01T11:22:31.741Z,4.00
2024-01-01T11:25:01.989Z,4.50
2024-01-01T11:27:32.930Z,4.50
2024-01-01T11:30:07.439Z,4.80
2024-01-01T11:32:38.222Z,3.80
2024-01-01T11:35:11.686Z,4.40
2024-01-01T11:37:44.064Z,4.10
2024-01-01T11:40:13.695Z,4.40
2024-01-01T11:42:43.007Z,4.20
2024-01-01T11:45:14.360Z,4.20
2024-01-01T11:47:43.229Z,4.40
2024-01-01T11:50:13.322Z,4.70
2024-01-01T11:52:43.069Z,4.90
2024-01-01T11:55:11.693Z,4.70
2024-01-01T11:57:43.604Z,4.70
2024-01-01T12:00:14.679Z,4.80
2024-01-01T12:02:43.200Z,4.50
2024-01-01T12:05:11.548Z,4.70
2024-01-01T12:07:39.811Z,5.20
2024-01-01T12:10:09.918Z,4.90
2024-01-01T12:12:39.380Z,4.80
2024-01-01T12:15:10.386Z,5.00
2024-01-01T12:17:44.641Z,5.40
2024-01-01T12:20:16.894Z,5.10
2024-01-01T12:22:45.878Z,5.10
2024-01-01T12:25:18.116Z,5.10
2024-01-01T12:28:01.429Z,5.30
2024-01-01T12:30:31.387Z,5.50
2024-01-01T12:33:01.716Z,5.50
2024-01-01T12:35:30.258Z,5.10
2024-01-01T12:37:58.699Z,4.70
2024-01-01T12:40:29.899Z,5.30
2024-01-01T12:42:59.469Z,5.40
2024-01-01T12:45:31.419Z,5.10
2024-01-01T12:48:02.000Z,5.20
2024-01-01T12:50:30.538Z,5.50
2024-01-01T12:52:59.331Z,5.50
2024-01-01T12:55:27.661Z,5.30
2024-01-01T12:57:55.783Z,5.20
2024-01-01T13:00:23.993Z,4.70
2024-01-01T13:02:52.294Z,5.10
2024-01-01T13:05:22.415Z,5.20
2024-01-01T13:07:50.769Z,5.00
2024-01-01T13:10:19.046Z,5.10
2024-01-01T13:12:47.259Z,5.30
2024-01-01T13:15:15.369Z,5.30
2024-01-01T13:17:46.042Z,5.10
2024-01-01T13:20:14.554Z,4.90
2024-01-01T13:22:44.689Z,5.00
2024-01-01T13:25:13.065Z,4.70
2024-01-01T13:27:41.304Z,4.80
2024-01-01T13:30:10.885Z,4.80
2024-01-01T13:32:40.230Z,4.40
2024-01-01T13:35:09.922Z,4.70
2024-01-01T13:37:39.065Z,4.30
2024-01-01T13:40:10.422Z,5.50
2024-01-01T13:42:38.592Z,5.50
2024-01-01T13:45:09.428Z,5.90
2024-01-01T13:47:37.833Z,5.60
2024-01-01T13:50:07.437Z,5.90
2024-01-01T13:52:37.389Z,5.80
2024-01-01T13:55:07.319Z,6.20
2024-01-01T13:57:38.064Z,5.70
2024-01-01T14:00:09.773Z,6.10
2024-01-01T14:02:39.059Z,5.80
2024-01-01T14:05:08.654Z,6.20
2024-01-01T14:07:37.503Z,5.90
2024-01-01T14:10:06.647Z,6.20
2024-01-01T14:12:36.201Z,6.10
2024-01-01T14:15:04.850Z,6.50
2024-01-01T14:17:33.070Z,6.20
2024-01-01T14:20:01.475Z,6.70
2024-01-01T14:22:31.645Z,6.80
2024-01-01T14:25:00.283Z,6.80
2024-01-01T14:27:28.500Z,6.90
2024-01-01T14:29:58.110Z,6.90
2024-01-01T14:32:28.391Z,7.00
2024-01-01T14:34:56.804Z,7.00
2024-01-01T14:37:25.132Z,7.00
2024-01-01T14:39:53.305Z,7.00
2024-01-01T14:42:21.488Z,7.10
2024-01-01T14:44:50.371Z,6.90
2024-01-01T14:47:20.152Z,7.10
2024-01-01T14:49:49.844Z,7.10
2024-01-01T14:52:18.788Z,6.70
2024-01-01T14:54:47.051Z,6.80
2024-01-01T14:57:15.241Z,7.10
2024-01-01T14:59:44.140Z,6.80
2024-01-01T15:02:13.591Z,7.10
2024-01-01T15:04:46.087Z,7.40
2024-01-01T15:07:14.474Z,7.50
2024-01-01T15:09:42.599Z,7.10
2024-01-01T15:12:11.244Z,7.30
2024-01-01T15:14:39.465Z,7.90
2024-01-01T15:17:07.718Z,7.70
2024-01-01T15:19:37.237Z,7.80
2024-01-01T15:22:06.984Z,7.90
2024-01-01T15:24:35.106Z,7.90
2024-01-01T15:27:05.493Z,7.80
2024-01-01T15:29:34.031Z,8.10
2024-01-01T15:32:02.269Z,7.80
2024-01-01T15:34:32.903Z,7.90
2024-01-01T15:37:01.601Z,7.90
2024-01-01T15:39:31.227Z,8.10
2024-01-01T15:41:59.477Z,7.80
2024-01-01T15:44:30.633Z,8.10
2024-01-01T15:46:58.844Z,7.90
2024-01-01T15:49:27.118Z,7.90
2024-01-01T15:51:55.268Z,7.80
2024-01-01T15:54:23.682Z,7.90
2024-01-01T15:56:53.169Z,7.70
2024-01-01T15:59:21.549Z,7.90
2024-01-01T16:01:50.323Z,7.80
2024-01-01T16:04:18.527Z,7.90
2024-01-01T16:06:46.869Z,8.30
2024-01-01T16:09:15.180Z,8.20
2024-01-01T16:11:43.378Z,8.10
2024-01-01T16:14:12.941Z,8.50
2024-01-01T16:16:41.240Z,7.70
2024-01-01T16:19:17.483Z,8.60
2024-01-01T16:21:52.799Z,8.10
2024-01-01T16:24:21.140Z,8.20
2024-01-01T16:26:49.921Z,8.40
2024-01-01T16:29:19.541Z,8.30
2024-01-01T16:31:47.709Z,8.50
2024-01-01T16:34:16.188Z,8.10
2024-01-01T16:36:46.938Z,8.80
2024-01-01T16:39:16.121Z,8.50
2024-01-01T16:41:44.423Z,8.60
2024-01-01T16:44:12.563Z,8.20
2024-01-01T16:46:42.244Z,8.50
2024-01-01T16:49:11.177Z,8.60
2024-01-01T16:51:39.571Z,8.70
2024-01-01T16:54:07.864Z,8.60
2024-01-01T16:56:36.073Z,8.80
2024-01-01T16:59:04.367Z,8.30
2024-01-01T17:01:32.643Z,8.40
2024-01-01T17:04:02.301Z,8.50
2024-01-01T17:06:30.441Z,8.60
2024-01-01T17:08:58.754Z,8.60
2024-01-01T17:11:27.142Z,8.80
2024-01-01T17:13:55.371Z,8.70
2024-01-01T17:16:23.740Z,9.00
2024-01-01T17:18:52.611Z,8.60
2024-01-01T17:21:22.564Z,9.00
2024-01-01T17:23:50.876Z,9.10
2024-01-01T17:26:19.096Z,9.10
2024-01-01T17:28:47.347Z,9.30
2024-01-01T17:31:15.525Z,8.80
2024-01-01T17:36:14.079Z,9.00
2024-01-01T17:38:43.903Z,9.00
2024-01-01T17:41:12.243Z,8.70
2024-01-01T17:43:40.844Z,9.10
2024-01-01T17:46:09.743Z,9.20
2024-01-01T17:48:38.027Z,9.10
2024-01-01T17:51:10.282Z,9.30
2024-01-01T17:53:38.557Z,8.80
2024-01-01T17:56:08.971Z,8.90
2024-01-01T17:58:38.266Z,8.70
2024-01-01T18:01:06.836Z,8.90
2024-01-01T18:03:35.145Z,8.70
2024-01-01T18:06:03.749Z,9.10
2024-01-01T18:08:32.780Z,9.00
2024-01-01T18:11:02.695Z,9.30
2024-01-01T18:13:32.329Z,8.90
2024-01-01T18:16:01.806Z,9.00
2024-01-01T18:18:30.105Z,8.90
2024-01-01T18:20:58.648Z,8.60
2024-01-01T18:23:26.806Z,8.90
2024-01-01T18:25:54.987Z,8.60
2024-01-01T18:28:23.176Z,9.10
2024-01-01T18:30:54.412Z,9.00
2024-01-01T18:33:22.847Z,9.00
2024-01-01T18:35:51.002Z,8.90
2024-01-01T18:38:19.261Z,9.00
2024-01-01T18:40:49.061Z,8.50
2024-01-01T18:43:20.268Z,8.80
2024-01-01T18:45:48.536Z,8.50
2024-01-01T18:48:18.319Z,9.10
2024-01-01T18:50:46.812Z,8.70
2024-01-01T18:53:17.423Z,8.50
2024-01-01T18:55:46.628Z,8.30
2024-01-01T18:58:14.920Z,9.00
2024-01-01T19:00:43.209Z,8.40
2024-01-01T19:03:11.847Z,8.40
2024-01-01T19:05:41.566Z,8.30
2024-01-01T19:08:10.649Z,8.30
2024-01-01T19:10:38.812Z,8.60
2024-01-01T19:13:07.334Z,8.60
2024-01-01T19:15:39.093Z,8.60
2024-01-01T19:18:08.444Z,8.40
2024-01-01T19:20:39.056Z,8.30
2024-01-01T19:23:09.014Z,8.50
2024-01-01T19:25:37.447Z,8.50
2024-01-01T19:28:06.234Z,8.40
2024-01-01T19:30:34.384Z,8.20
2024-01-01T19:33:02.714Z,8.30
2024-01-01T19:35:31.027Z,8.40
2024-01-01T19:37:59.750Z,8.20
2024-01-01T19:40:29.356Z,8.20
2024-01-01T19:42:57.555Z,8.20
2024-01-01T19:45:26.692Z,8.30
2024-01-01T19:47:55.201Z,8.20
2024-01-01T19:50:23.704Z,8.00
2024-01-01T19:52:52.070Z,7.90
2024-01-01T19:55:20.325Z,8.10
2024-01-01T19:57:49.857Z,8.00
2024-01-01T20:00:18.848Z,8.30
2024-01-01T20:02:46.137Z,7.80
2024-01-01T20:05:14.323Z,8.20
2024-01-01T20:07:42.554Z,8.10
2024-01-01T20:10:11.030Z,8.10
2024-01-01T20:12:39.171Z,7.70
2024-01-01T20:15:09.246Z,7.90
2024-01-01T20:17:39.661Z,7.60
2024-01-01T20:20:09.755Z,7.90
2024-01-01T20:22:38.014Z,7.40
2024-01-01T20:25:06.912Z,7.80
2024-01-01T20:27:35.014Z,7.40
2024-01-01T20:30:03.286Z,7.70
2024-01-01T20:32:32.893Z,7.40
2024-01-01T20:35:01.374Z,7.70
2024-01-01T20:37:29.621Z,7.60
2024-01-01T20:39:57.708Z,7.50
2024-01-01T20:42:25.878Z,7.50
2024-01-01T20:44:54.021Z,7.40
2024-01-01T20:47:22.145Z,7.50
2024-01-01T20:49:52.979Z,7.70
2024-01-01T20:52:26.753Z,7.30
2024-01-01T20:54:56.788Z,7.50
2024-01-01T20:57:25.084Z,7.70
2024-01-01T20:59:53.412Z,7.30
2024-01-01T21:02:22.680Z,7.50
2024-01-01T21:04:52.249Z,7.40
2024-01-01T21:07:20.358Z,7.50
2024-01-01T21:09:48.712Z,7.20
2024-01-01T21:12:16.971Z,7.40
2024-01-01T21:14:45.238Z,7.10
2024-01-01T21:17:13.447Z,7.30
2024-01-01T21:19:41.864Z,7.10
2024-01-01T21:22:11.375Z,7.30
2024-01-01T21:24:38.548Z,7.30
2024-01-01T21:27:06.970Z,7.60
2024-01-01T21:29:35.284Z,7.20
2024-01-01T21:32:03.555Z,7.20
2024-01-01T21:34:31.807Z,7.40
2024-01-01T21:37:00.095Z,7.40
2024-01-01T21:39:29.793Z,6.90
2024-01-01T21:41:58.110Z,7.20
2024-01-01T21:44:26.278Z,7.20
2024-01-01T21:46:54.497Z,7.10
2024-01-01T21:49:22.703Z,7.10
2024-01-01T21:51:50.876Z,6.90
2024-01-01T21:54:18.988Z,7.40
2024-01-01T21:56:48.483Z,7.10
2024-01-01T21:59:16.695Z,7.20
2024-01-01T22:01:46.086Z,7.20
2024-01-01T22:04:14.416Z,7.10
2024-01-01T22:06:43.735Z,7.10
2024-01-01T22:09:11.900Z,6.80
2024-01-01T22:11:40.052Z,6.90
2024-01-01T22:14:09.676Z,6.60
2024-01-01T22:16:41.387Z,6.80
2024-01-01T22:19:09.567Z,7.00
2024-01-01T22:21:38.641Z,6.80
2024-01-01T22:24:08.211Z,6.80
2024-01-01T22:26:36.721Z,6.30
2024-01-01T22:29:05.341Z,6.60
2024-01-01T22:31:40.515Z,6.60
2024-01-01T22:34:09.069Z,6.50
2024-01-01T22:36:37.236Z,6.60
2024-01-01T22:39:05.491Z,6.30
2024-01-01T22:41:33.600Z,6.00
2024-01-01T22:44:01.915Z,6.30
2024-01-01T22:46:30.038Z,6.40
2024-01-01T22:48:59.744Z,5.90
2024-01-01T22:51:27.887Z,6.20
2024-01-01T22:53:56.028Z,6.00
2024-01-01T22:56:24.213Z,6.10
2024-01-01T22:58:52.351Z,6.10
2024-01-01T23:01:20.840Z,5.80
2024-01-01T23:03:49.081Z,6.10
2024-01-01T23:06:18.679Z,5.80
2024-01-01T23:08:46.837Z,5.60
2024-01-01T23:11:15.067Z,5.80
2024-01-01T23:13:43.274Z,5.90
2024-01-01T23:16:11.518Z,5.10
2024-01-01T23:18:39.708Z,5.80
2024-01-01T23:21:07.999Z,5.90
2024-01-01T23:23:37.630Z,5.90
2024-01-01T23:26:05.929Z,5.70
2024-01-01T23:28:35.099Z,5.60
2024-01-01T23:31:03.382Z,5.80
2024-01-01T23:33:31.547Z,5.50
2024-01-01T23:36:00.105Z,5.40
2024-01-01T23:38:28.458Z,5.20
2024-01-01T23:40:58.070Z,5.60
2024-01-01T23:43:26.503Z,5.40
2024-01-01T23:45:55.049Z,5.40
2024-01-01T23:48:24.796Z,5.50
2024-01-01T23:50:53.329Z,5.30
2024-01-01T23:53:21.838Z,5.20
2024-01-01T23:55:50.470Z,5.30
2024-01-01T23:58:22.679Z,5.20
